createdAt,value
2016-09-16T00:00:39.276Z,965.54
2016-09-16T00:01:39.245Z,965.47
2016-09-16T00:02:39.211Z,965.46
2016-09-16T00:03:39.181Z,965.46
2016-09-16T00:04:39.147Z,965.42
2016-09-16T00:05:39.117Z,965.42
2016-09-16T00:06:39.085Z,965.39
2016-09-16T00:07:39.054Z,965.37
2016-09-16T00:08:39.021Z,965.36
2016-09-16T00:09:38.991Z,965.35
2016-09-16T00:10:38.958Z,965.3
2016-09-16T00:11:38.927Z,965.35
2016-09-16T00:12:38.895Z,965.31
2016-09-16T00:13:38.863Z,965.38
2016-09-16T00:14:38.830Z,965.4
2016-09-16T00:15:38.802Z,965.42
2016-09-16T00:16:38.769Z,965.38
2016-09-16T00:17:38.737Z,965.4
2016-09-16T00:18:38.704Z,965.43
2016-09-16T00:19:38.673Z,965.36
2016-09-16T00:20:38.641Z,965.37
2016-09-16T00:21:38.608Z,965.38
2016-09-16T00:22:38.578Z,965.4
2016-09-16T00:23:38.547Z,965.39
2016-09-16T00:24:38.515Z,965.41
2016-09-16T00:25:38.484Z,965.44
2016-09-16T00:26:38.453Z,965.44
2016-09-16T00:27:38.425Z,965.42
2016-09-16T00:28:38.388Z,965.46
2016-09-16T00:29:38.355Z,965.47
2016-09-16T00:30:38.324Z,965.47
2016-09-16T00:31:38.294Z,965.47
2016-09-16T00:32:38.261Z,965.47
2016-09-16T00:33:38.229Z,965.42
2016-09-16T00:34:38.198Z,965.4
2016-09-16T00:35:38.167Z,965.43
2016-09-16T00:36:38.136Z,965.4
2016-09-16T00:37:38.101Z,965.42
2016-09-16T00:38:38.071Z,965.41
2016-09-16T00:39:38.040Z,965.43
2016-09-16T00:40:38.007Z,965.42
2016-09-16T00:41:37.981Z,965.47
2016-09-16T00:42:37.943Z,965.43
2016-09-16T00:43:37.912Z,965.43
2016-09-16T00:44:37.880Z,965.46
2016-09-16T00:45:37.847Z,965.46
2016-09-16T00:46:37.815Z,965.43
2016-09-16T00:47:37.785Z,965.45
2016-09-16T00:48:37.751Z,965.37
2016-09-16T00:49:37.721Z,965.42
2016-09-16T00:50:37.690Z,965.41
2016-09-16T00:51:37.656Z,965.44
2016-09-16T00:52:37.626Z,965.46
2016-09-16T00:53:37.594Z,965.45
2016-09-16T00:54:37.561Z,965.5
2016-09-16T00:55:37.528Z,965.55
2016-09-16T00:56:37.498Z,965.53
2016-09-16T00:57:37.466Z,965.53
2016-09-16T00:58:37.434Z,965.57
2016-09-16T00:59:37.403Z,965.55
2016-09-16T01:00:37.382Z,965.57
2016-09-16T01:01:37.339Z,965.6
2016-09-16T01:02:37.307Z,965.56
2016-09-16T01:03:37.277Z,965.63
2016-09-16T01:04:37.243Z,965.6
2016-09-16T01:05:37.212Z,965.62
2016-09-16T01:06:37.181Z,965.63
2016-09-16T01:07:37.149Z,965.65
2016-09-16T01:08:37.115Z,965.65
2016-09-16T01:09:37.086Z,965.69
2016-09-16T01:10:37.051Z,965.68
2016-09-16T01:11:37.020Z,965.62
2016-09-16T01:12:36.988Z,965.66
2016-09-16T01:13:36.956Z,965.67
2016-09-16T01:14:36.925Z,965.67
2016-09-16T01:15:36.893Z,965.66
2016-09-16T01:16:36.862Z,965.66
2016-09-16T01:17:36.830Z,965.66
2016-09-16T01:18:36.797Z,965.65
2016-09-16T01:19:36.766Z,965.63
2016-09-16T01:20:36.733Z,965.65
2016-09-16T01:21:36.700Z,965.62
2016-09-16T01:22:36.670Z,965.62
2016-09-16T01:23:36.636Z,965.63
2016-09-16T01:24:36.606Z,965.6
2016-09-16T01:25:36.576Z,965.61
2016-09-16T01:26:36.542Z,965.63
2016-09-16T01:27:36.511Z,965.58
2016-09-16T01:28:36.479Z,965.56
2016-09-16T01:29:36.447Z,965.54
2016-09-16T01:30:36.421Z,965.55
2016-09-16T01:31:36.383Z,965.52
2016-09-16T01:32:36.350Z,965.5
2016-09-16T01:33:36.318Z,965.47
2016-09-16T01:34:36.286Z,965.44
2016-09-16T01:35:36.257Z,965.43
2016-09-16T01:36:36.226Z,965.42
2016-09-16T01:37:36.190Z,965.35
2016-09-16T01:38:36.157Z,965.33
2016-09-16T01:39:36.127Z,965.32
2016-09-16T01:40:36.095Z,965.3
2016-09-16T01:41:36.065Z,965.31
2016-09-16T01:42:36.030Z,965.3
2016-09-16T01:43:35.998Z,965.28
2016-09-16T01:44:35.965Z,965.32
2016-09-16T01:45:35.935Z,965.34
2016-09-16T01:46:35.905Z,965.38
2016-09-16T01:47:35.873Z,965.31
2016-09-16T01:48:35.840Z,965.34
2016-09-16T01:49:35.808Z,965.39
2016-09-16T01:50:35.776Z,965.37
2016-09-16T01:51:35.744Z,965.36
2016-09-16T01:52:35.711Z,965.35
2016-09-16T01:53:35.679Z,965.38
2016-09-16T01:54:35.646Z,965.34
2016-09-16T01:55:35.616Z,965.36
2016-09-16T01:56:35.584Z,965.33
2016-09-16T01:57:35.549Z,965.3
2016-09-16T01:58:35.519Z,965.26
2016-09-16T01:59:35.486Z,965.25
2016-09-16T02:00:35.455Z,965.24
2016-09-16T02:01:35.421Z,965.22
2016-09-16T02:02:35.391Z,965.16
2016-09-16T02:03:35.359Z,965.15
2016-09-16T02:04:35.325Z,965.14
2016-09-16T02:05:35.293Z,965.15
2016-09-16T02:06:35.263Z,965.13
2016-09-16T02:07:35.228Z,965.16
2016-09-16T02:08:35.196Z,965.14
2016-09-16T02:09:35.169Z,965.15
2016-09-16T02:10:35.132Z,965.13
2016-09-16T02:11:35.099Z,965.15
2016-09-16T02:12:35.067Z,965.18
2016-09-16T02:13:35.034Z,965.13
2016-09-16T02:14:35.003Z,965.17
2016-09-16T02:15:34.969Z,965.12
2016-09-16T02:16:34.937Z,965.16
2016-09-16T02:17:34.904Z,965.12
2016-09-16T02:18:34.871Z,965.14
2016-09-16T02:19:34.840Z,965.12
2016-09-16T02:20:34.807Z,965.1
2016-09-16T02:21:34.788Z,965.14
2016-09-16T02:22:34.742Z,965.15
2016-09-16T02:23:34.711Z,965.13
2016-09-16T02:24:34.680Z,965.11
2016-09-16T02:25:34.646Z,965.12
2016-09-16T02:26:34.614Z,965.1
2016-09-16T02:27:34.583Z,965.09
2016-09-16T02:28:34.551Z,965.08
2016-09-16T02:29:34.516Z,965.06
2016-09-16T02:30:34.484Z,965.09
2016-09-16T02:31:34.451Z,965.11
2016-09-16T02:32:34.419Z,965.1
2016-09-16T02:33:34.386Z,965.07
2016-09-16T02:34:34.353Z,965.11
2016-09-16T02:35:34.323Z,965.1
2016-09-16T02:36:34.288Z,965.09
2016-09-16T02:37:34.255Z,965.15
2016-09-16T02:38:34.224Z,965.11
2016-09-16T02:39:34.192Z,965.11
2016-09-16T02:40:34.158Z,965.12
2016-09-16T02:41:34.124Z,965.19
2016-09-16T02:42:34.092Z,965.11
2016-09-16T02:43:34.061Z,965.11
2016-09-16T02:44:34.029Z,965.1
2016-09-16T02:45:33.996Z,965.14
2016-09-16T02:46:33.966Z,965.16
2016-09-16T02:47:33.930Z,965.17
2016-09-16T02:48:33.898Z,965.16
2016-09-16T02:49:33.868Z,965.16
2016-09-16T02:50:33.833Z,965.14
2016-09-16T02:51:33.799Z,965.13
2016-09-16T02:52:33.767Z,965.14
2016-09-16T02:53:33.735Z,965.1
2016-09-16T02:54:33.702Z,965.07
2016-09-16T02:55:33.670Z,965.08
2016-09-16T02:56:33.636Z,965.04
2016-09-16T02:57:33.604Z,965.05
2016-09-16T02:58:33.570Z,965.06
2016-09-16T02:59:33.539Z,965.08
2016-09-16T03:00:33.506Z,965.08
2016-09-16T03:01:33.476Z,965.06
2016-09-16T03:02:33.440Z,965.09
2016-09-16T03:03:33.408Z,965.07
2016-09-16T03:04:33.376Z,965.09
2016-09-16T03:05:33.344Z,965.11
2016-09-16T03:06:33.310Z,965.13
2016-09-16T03:07:33.278Z,965.14
2016-09-16T03:08:33.244Z,965.13
2016-09-16T03:09:33.212Z,965.15
2016-09-16T03:10:33.180Z,965.17
2016-09-16T03:11:33.147Z,965.18
2016-09-16T03:12:33.114Z,965.15
2016-09-16T03:13:33.082Z,965.16
2016-09-16T03:14:33.049Z,965.12
2016-09-16T03:15:33.017Z,965.1
2016-09-16T03:16:32.987Z,965.12
2016-09-16T03:17:32.950Z,965.1
2016-09-16T03:18:32.920Z,965.07
2016-09-16T03:19:32.886Z,965.16
2016-09-16T03:20:32.854Z,965.12
2016-09-16T03:21:32.821Z,965.17
2016-09-16T03:22:32.788Z,965.18
2016-09-16T03:23:32.757Z,965.16
2016-09-16T03:24:32.723Z,965.15
2016-09-16T03:25:32.690Z,965.15
2016-09-16T03:26:32.659Z,965.17
2016-09-16T03:27:32.627Z,965.13
2016-09-16T03:28:32.591Z,965.14
2016-09-16T03:29:32.563Z,965.1
2016-09-16T03:30:32.528Z,965.08
2016-09-16T03:31:32.496Z,965.08
2016-09-16T03:32:32.462Z,965.06
2016-09-16T03:33:32.429Z,965.05
2016-09-16T03:34:32.400Z,965
2016-09-16T03:35:32.378Z,965.03
2016-09-16T03:36:32.333Z,965.01
2016-09-16T03:37:32.302Z,965.05
2016-09-16T03:38:32.269Z,964.98
2016-09-16T03:39:32.234Z,964.96
2016-09-16T03:40:32.208Z,964.95
2016-09-16T03:41:32.171Z,964.93
2016-09-16T03:42:32.140Z,964.94
2016-09-16T03:43:32.104Z,964.95
2016-09-16T03:44:32.074Z,964.97
2016-09-16T03:45:32.041Z,964.94
2016-09-16T03:46:32.009Z,964.92
2016-09-16T03:47:31.975Z,964.91
2016-09-16T03:48:31.943Z,964.87
2016-09-16T03:49:31.910Z,964.89
2016-09-16T03:50:31.877Z,964.9
2016-09-16T03:51:31.849Z,964.94
2016-09-16T03:52:31.812Z,964.88
2016-09-16T03:53:31.783Z,964.81
2016-09-16T03:54:31.746Z,964.82
2016-09-16T03:55:31.715Z,964.79
2016-09-16T03:56:31.682Z,964.76
2016-09-16T03:57:31.649Z,964.75
2016-09-16T03:58:31.627Z,964.73
2016-09-16T03:59:31.584Z,964.7
2016-09-16T04:00:31.551Z,964.69
2016-09-16T04:01:31.518Z,964.69
2016-09-16T04:02:31.488Z,964.69
2016-09-16T04:03:31.454Z,964.63
2016-09-16T04:04:31.422Z,964.66
2016-09-16T04:05:31.387Z,964.63
2016-09-16T04:06:31.355Z,964.65
2016-09-16T04:07:31.322Z,964.67
2016-09-16T04:08:31.291Z,964.63
2016-09-16T04:09:31.256Z,964.63
2016-09-16T04:10:31.222Z,964.63
2016-09-16T04:11:31.192Z,964.62
2016-09-16T04:12:31.160Z,964.58
2016-09-16T04:13:31.126Z,964.57
2016-09-16T04:14:31.094Z,964.58
2016-09-16T04:15:31.061Z,964.59
2016-09-16T04:16:31.028Z,964.63
2016-09-16T04:17:30.995Z,964.62
2016-09-16T04:18:30.963Z,964.65
2016-09-16T04:19:30.928Z,964.61
2016-09-16T04:20:30.896Z,964.66
2016-09-16T04:21:30.864Z,964.67
2016-09-16T04:22:30.830Z,964.65
2016-09-16T04:23:30.799Z,964.64
2016-09-16T04:24:30.766Z,964.63
2016-09-16T04:25:30.733Z,964.67
2016-09-16T04:26:30.700Z,964.6
2016-09-16T04:27:30.668Z,964.62
2016-09-16T04:28:30.635Z,964.63
2016-09-16T04:29:30.602Z,964.55
2016-09-16T04:30:30.568Z,964.61
2016-09-16T04:31:30.536Z,964.6
2016-09-16T04:32:30.503Z,964.61
2016-09-16T04:33:30.470Z,964.62
2016-09-16T04:34:30.437Z,964.6
2016-09-16T04:35:30.405Z,964.65
2016-09-16T04:36:30.373Z,964.69
2016-09-16T04:37:30.342Z,964.71
2016-09-16T04:38:30.310Z,964.72
2016-09-16T04:39:30.274Z,964.73
2016-09-16T04:40:30.243Z,964.76
2016-09-16T04:41:30.207Z,964.78
2016-09-16T04:42:30.174Z,964.77
2016-09-16T04:43:30.144Z,964.78
2016-09-16T04:44:30.111Z,964.82
2016-09-16T04:45:30.077Z,964.77
2016-09-16T04:46:30.044Z,964.82
2016-09-16T04:47:30.012Z,964.82
2016-09-16T04:48:29.976Z,964.84
2016-09-16T04:49:29.944Z,964.84
2016-09-16T04:50:29.911Z,964.85
2016-09-16T04:51:29.880Z,964.83
2016-09-16T04:52:29.845Z,964.82
2016-09-16T04:53:29.815Z,964.81
2016-09-16T04:54:29.780Z,964.84
2016-09-16T04:55:29.745Z,964.83
2016-09-16T04:56:29.714Z,964.8
2016-09-16T04:57:29.681Z,964.81
2016-09-16T04:58:29.649Z,964.8
2016-09-16T04:59:29.615Z,964.79
2016-09-16T05:00:29.583Z,964.8
2016-09-16T05:01:29.550Z,964.76
2016-09-16T05:02:29.517Z,964.82
2016-09-16T05:03:29.483Z,964.8
2016-09-16T05:04:29.450Z,964.87
2016-09-16T05:05:29.416Z,964.91
2016-09-16T05:06:29.385Z,964.92
2016-09-16T05:07:29.350Z,964.93
2016-09-16T05:08:29.317Z,964.97
2016-09-16T05:09:29.286Z,964.94
2016-09-16T05:10:29.251Z,964.95
2016-09-16T05:11:29.219Z,964.97
2016-09-16T05:12:29.187Z,964.95
2016-09-16T05:13:29.153Z,964.92
2016-09-16T05:14:29.119Z,964.95
2016-09-16T05:15:29.088Z,964.94
2016-09-16T05:16:29.055Z,964.96
2016-09-16T05:17:29.022Z,964.97
2016-09-16T05:18:28.988Z,964.93
2016-09-16T05:19:28.956Z,964.96
2016-09-16T05:20:28.924Z,964.94
2016-09-16T05:21:28.889Z,964.92
2016-09-16T05:22:28.856Z,964.89
2016-09-16T05:23:28.825Z,964.89
2016-09-16T05:24:28.792Z,964.81
2016-09-16T05:25:28.758Z,964.79
2016-09-16T05:26:28.726Z,964.81
2016-09-16T05:27:28.704Z,964.8
2016-09-16T05:28:28.659Z,964.8
2016-09-16T05:29:28.627Z,964.85
2016-09-16T05:30:28.594Z,964.84
2016-09-16T05:31:28.560Z,964.84
2016-09-16T05:32:28.527Z,964.85
2016-09-16T05:33:28.495Z,964.83
2016-09-16T05:34:28.466Z,964.85
2016-09-16T05:35:28.429Z,964.9
2016-09-16T05:36:28.398Z,964.89
2016-09-16T05:37:28.366Z,964.92
2016-09-16T05:38:28.335Z,964.92
2016-09-16T05:39:28.306Z,964.94
2016-09-16T05:40:28.267Z,964.99
2016-09-16T05:41:28.233Z,964.98
2016-09-16T05:42:28.202Z,964.97
2016-09-16T05:43:28.169Z,965.03
2016-09-16T05:44:28.137Z,965.04
2016-09-16T05:45:28.104Z,965.03
2016-09-16T05:46:28.069Z,965.06
2016-09-16T05:47:28.038Z,965.1
2016-09-16T05:48:28.006Z,965.06
2016-09-16T05:49:27.978Z,965.08
2016-09-16T05:50:27.940Z,965.07
2016-09-16T05:51:27.907Z,965.08
2016-09-16T05:52:27.881Z,965.11
2016-09-16T05:53:27.842Z,965.1
2016-09-16T05:54:27.810Z,965.14
2016-09-16T05:55:27.776Z,965.13
2016-09-16T05:56:27.744Z,965.15
2016-09-16T05:57:27.713Z,965.15
2016-09-16T05:58:27.678Z,965.1
2016-09-16T05:59:27.646Z,965.18
2016-09-16T06:00:27.614Z,965.19
2016-09-16T06:01:27.583Z,965.21
2016-09-16T06:02:27.550Z,965.22
2016-09-16T06:03:27.517Z,965.2
2016-09-16T06:04:27.484Z,965.21
2016-09-16T06:05:27.451Z,965.24
2016-09-16T06:06:27.418Z,965.3
2016-09-16T06:07:27.386Z,965.26
2016-09-16T06:08:27.353Z,965.28
2016-09-16T06:09:27.321Z,965.22
2016-09-16T06:10:27.289Z,965.22
2016-09-16T06:11:27.256Z,965.17
2016-09-16T06:12:27.222Z,965.17
2016-09-16T06:13:27.191Z,965.18
2016-09-16T06:14:27.164Z,965.17
2016-09-16T06:15:27.127Z,965.19
2016-09-16T06:16:27.095Z,965.13
2016-09-16T06:17:27.062Z,965.17
2016-09-16T06:18:27.031Z,965.14
2016-09-16T06:19:26.997Z,965.09
2016-09-16T06:20:26.967Z,965.06
2016-09-16T06:21:26.933Z,965.07
2016-09-16T06:22:26.901Z,965.06
2016-09-16T06:23:26.868Z,965.03
2016-09-16T06:24:26.836Z,965.08
2016-09-16T06:25:26.805Z,965.07
2016-09-16T06:26:26.774Z,965.1
2016-09-16T06:27:26.740Z,965.16
2016-09-16T06:28:26.707Z,965.09
2016-09-16T06:29:26.675Z,965.1
2016-09-16T06:30:26.644Z,965.1
2016-09-16T06:31:26.614Z,965.11
2016-09-16T06:32:26.579Z,965.03
2016-09-16T06:33:26.547Z,965
2016-09-16T06:34:26.516Z,965.04
2016-09-16T06:35:26.482Z,965.04
2016-09-16T06:36:26.452Z,965.13
2016-09-16T06:37:26.421Z,965.15
2016-09-16T06:38:26.388Z,965.17
2016-09-16T06:39:26.358Z,965.18
2016-09-16T06:40:26.328Z,965.17
2016-09-16T06:41:26.295Z,965.16
2016-09-16T06:42:26.265Z,965.12
2016-09-16T06:43:26.242Z,965.16
2016-09-16T06:44:26.204Z,965.15
2016-09-16T06:45:26.176Z,965.14
2016-09-16T06:46:26.147Z,965.16
2016-09-16T06:47:26.118Z,965.17
2016-09-16T06:48:26.089Z,965.19
2016-09-16T06:49:26.058Z,965.19
2016-09-16T06:50:26.029Z,965.3
2016-09-16T06:51:26.003Z,965.3
2016-09-16T06:52:25.972Z,965.26
2016-09-16T06:53:25.943Z,965.27
2016-09-16T06:54:25.918Z,965.29
2016-09-16T06:55:25.887Z,965.26
2016-09-16T06:56:25.859Z,965.28
2016-09-16T06:57:25.831Z,965.25
2016-09-16T06:58:25.805Z,965.22
2016-09-16T06:59:25.777Z,965.14
2016-09-16T07:00:25.752Z,965.15
2016-09-16T07:01:25.725Z,965.15
2016-09-16T07:02:25.698Z,965.14
2016-09-16T07:03:25.672Z,965.16
2016-09-16T07:04:25.645Z,965.13
2016-09-16T07:05:25.619Z,965.1
2016-09-16T07:06:25.594Z,965.13
2016-09-16T07:07:25.566Z,965.13
2016-09-16T07:08:25.540Z,965.22
2016-09-16T07:09:25.519Z,965.21
2016-09-16T07:10:25.490Z,965.11
2016-09-16T07:11:25.464Z,965.13
2016-09-16T07:12:25.436Z,965.11
2016-09-16T07:13:25.413Z,965.13
2016-09-16T07:14:25.385Z,965.1
2016-09-16T07:15:25.360Z,965.07
2016-09-16T07:16:25.336Z,965.09
2016-09-16T07:17:25.309Z,965.13
2016-09-16T07:18:25.282Z,965.14
2016-09-16T07:19:25.256Z,965.14
2016-09-16T07:20:25.233Z,965.12
2016-09-16T07:21:25.216Z,965.16
2016-09-16T07:22:25.181Z,965.12
2016-09-16T07:23:25.154Z,965.2
2016-09-16T07:24:25.129Z,965.2
2016-09-16T07:25:25.104Z,965.24
2016-09-16T07:26:25.080Z,965.32
2016-09-16T07:27:25.055Z,965.32
2016-09-16T07:28:25.031Z,965.35
2016-09-16T07:29:25.006Z,965.35
2016-09-16T07:30:24.983Z,965.38
2016-09-16T07:31:24.958Z,965.42
2016-09-16T07:32:24.936Z,965.34
2016-09-16T07:33:24.912Z,965.41
2016-09-16T07:34:24.890Z,965.37
2016-09-16T07:35:24.864Z,965.38
2016-09-16T07:36:24.843Z,965.39
2016-09-16T07:37:24.821Z,965.41
2016-09-16T07:38:24.801Z,965.37
2016-09-16T07:39:24.780Z,965.41
2016-09-16T07:40:24.757Z,965.39
2016-09-16T07:41:24.734Z,965.37
2016-09-16T07:42:24.713Z,965.43
2016-09-16T07:43:24.693Z,965.43
2016-09-16T07:44:24.671Z,965.47
2016-09-16T07:45:24.651Z,965.45
2016-09-16T07:46:24.634Z,965.53
2016-09-16T07:47:24.610Z,965.5
2016-09-16T07:48:24.592Z,965.55
2016-09-16T07:49:24.573Z,965.6
2016-09-16T07:50:24.550Z,965.67
2016-09-16T07:51:24.531Z,965.68
2016-09-16T07:52:24.511Z,965.68
2016-09-16T07:53:24.493Z,965.69
2016-09-16T07:54:24.472Z,965.73
2016-09-16T07:55:24.452Z,965.69
2016-09-16T07:56:24.431Z,965.72
2016-09-16T07:57:24.413Z,965.73
2016-09-16T07:58:24.393Z,965.76
2016-09-16T07:59:24.375Z,965.71
2016-09-16T08:00:24.359Z,965.73
2016-09-16T08:01:24.340Z,965.74
2016-09-16T08:02:24.320Z,965.73
2016-09-16T08:03:24.301Z,965.76
2016-09-16T08:04:24.282Z,965.71
2016-09-16T08:05:24.261Z,965.81
2016-09-16T08:06:24.243Z,965.77
2016-09-16T08:07:24.226Z,965.81
2016-09-16T08:08:24.207Z,965.78
2016-09-16T08:09:24.188Z,965.85
2016-09-16T08:10:24.170Z,965.84
2016-09-16T08:11:24.154Z,965.85
2016-09-16T08:12:24.135Z,965.84
2016-09-16T08:13:24.117Z,965.88
2016-09-16T08:14:24.099Z,965.87
2016-09-16T08:15:24.081Z,965.85
2016-09-16T08:16:24.063Z,965.9
2016-09-16T08:17:24.047Z,965.91
2016-09-16T08:18:24.028Z,965.92
2016-09-16T08:19:24.010Z,965.93
2016-09-16T08:20:23.992Z,966
2016-09-16T08:21:23.977Z,966.01
2016-09-16T08:22:23.958Z,966.06
2016-09-16T08:23:23.941Z,966.06
2016-09-16T08:24:23.924Z,966.05
2016-09-16T08:25:23.905Z,966.04
2016-09-16T08:26:23.889Z,966.07
2016-09-16T08:27:23.873Z,966.07
2016-09-16T08:28:23.855Z,966.08
2016-09-16T08:29:23.840Z,966.12
2016-09-16T08:30:23.822Z,966.11
2016-09-16T08:31:23.804Z,966.12
2016-09-16T08:32:23.791Z,966.1
2016-09-16T08:33:23.771Z,966.05
2016-09-16T08:34:23.756Z,966.07
2016-09-16T08:35:23.739Z,966.05
2016-09-16T08:36:23.723Z,966.06
2016-09-16T08:37:23.706Z,966.03
2016-09-16T08:38:23.689Z,965.98
2016-09-16T08:39:23.674Z,966.05
2016-09-16T08:40:23.656Z,965.96
2016-09-16T08:41:23.642Z,966.01
2016-09-16T08:42:23.625Z,965.96
2016-09-16T08:43:23.610Z,965.95
2016-09-16T08:44:23.592Z,966.09
2016-09-16T08:45:23.577Z,965.98
2016-09-16T08:46:23.559Z,965.87
2016-09-16T08:47:23.544Z,965.84
2016-09-16T08:48:23.527Z,965.8
2016-09-16T08:49:23.509Z,965.78
2016-09-16T08:50:23.494Z,965.76
2016-09-16T08:51:23.476Z,965.7
2016-09-16T08:52:23.459Z,965.68
2016-09-16T08:53:23.442Z,965.68
2016-09-16T08:54:23.423Z,965.66
2016-09-16T08:55:23.405Z,965.61
2016-09-16T08:56:23.386Z,965.57
2016-09-16T08:57:23.366Z,965.58
2016-09-16T08:58:23.347Z,965.58
2016-09-16T08:59:23.330Z,965.56
2016-09-16T09:00:23.308Z,965.54
2016-09-16T09:01:23.289Z,965.52
2016-09-16T09:02:23.268Z,965.51
2016-09-16T09:03:23.248Z,965.46
2016-09-16T09:04:23.230Z,965.52
2016-09-16T09:05:23.206Z,965.5
2016-09-16T09:06:23.186Z,965.5
2016-09-16T09:07:23.164Z,965.51
2016-09-16T09:08:23.142Z,965.5
2016-09-16T09:09:23.121Z,965.54
2016-09-16T09:10:23.100Z,965.58
2016-09-16T09:11:23.078Z,965.51
2016-09-16T09:12:23.054Z,965.51
2016-09-16T09:13:23.033Z,965.49
2016-09-16T09:14:23.009Z,965.51
2016-09-16T09:15:22.986Z,965.47
2016-09-16T09:16:22.963Z,965.45
2016-09-16T09:17:22.938Z,965.5
2016-09-16T09:18:22.915Z,965.47
2016-09-16T09:19:22.892Z,965.52
2016-09-16T09:20:22.869Z,965.52
2016-09-16T09:21:22.845Z,965.54
2016-09-16T09:22:22.820Z,965.47
2016-09-16T09:23:22.806Z,965.54
2016-09-16T09:24:22.771Z,965.48
2016-09-16T09:25:22.747Z,965.52
2016-09-16T09:26:22.723Z,965.47
2016-09-16T09:27:22.696Z,965.52
2016-09-16T09:28:22.670Z,965.48
2016-09-16T09:29:22.645Z,965.48
2016-09-16T09:30:22.619Z,965.46
2016-09-16T09:31:22.595Z,965.48
2016-09-16T09:32:22.570Z,965.49
2016-09-16T09:33:22.544Z,965.45
2016-09-16T09:34:22.517Z,965.43
2016-09-16T09:35:22.492Z,965.44
2016-09-16T09:36:22.474Z,965.38
2016-09-16T09:37:22.438Z,965.37
2016-09-16T09:38:22.412Z,965.31
2016-09-16T09:39:22.387Z,965.31
2016-09-16T09:40:22.360Z,965.27
2016-09-16T09:41:22.335Z,965.22
2016-09-16T09:42:22.308Z,965.19
2016-09-16T09:43:22.280Z,965.16
2016-09-16T09:44:22.253Z,965.13
2016-09-16T09:45:22.226Z,965.12
2016-09-16T09:46:22.199Z,965.12
2016-09-16T09:47:22.173Z,965.15
2016-09-16T09:48:22.155Z,965.12
2016-09-16T09:49:22.121Z,965.15
2016-09-16T09:50:22.094Z,965.23
2016-09-16T09:51:22.067Z,965.2
2016-09-16T09:52:22.042Z,965.27
2016-09-16T09:53:22.013Z,965.26
2016-09-16T09:54:21.987Z,965.28
2016-09-16T09:55:21.959Z,965.3
2016-09-16T09:56:21.932Z,965.29
2016-09-16T09:57:21.907Z,965.27
2016-09-16T09:58:21.879Z,965.3
2016-09-16T09:59:21.851Z,965.25
2016-09-16T10:00:21.831Z,965.27
2016-09-16T10:01:21.798Z,965.25
2016-09-16T10:02:21.773Z,965.24
2016-09-16T10:03:21.743Z,965.27
2016-09-16T10:04:21.716Z,965.3
2016-09-16T10:05:21.692Z,965.29
2016-09-16T10:06:21.665Z,965.3
2016-09-16T10:07:21.637Z,965.34
2016-09-16T10:08:21.613Z,965.3
2016-09-16T10:09:21.587Z,965.38
2016-09-16T10:10:21.561Z,965.33
2016-09-16T10:11:21.539Z,965.36
2016-09-16T10:12:21.507Z,965.53
2016-09-16T10:13:21.478Z,966.27
2016-09-16T10:14:21.453Z,966.41
2016-09-16T10:15:21.427Z,966.17
2016-09-16T10:16:21.400Z,966.43
2016-09-16T10:17:21.375Z,966.41
2016-09-16T10:18:21.350Z,966.09
2016-09-16T10:19:21.325Z,965.77
2016-09-16T10:20:21.303Z,965.98
2016-09-16T10:21:21.278Z,966.43
2016-09-16T10:22:21.254Z,965.68
2016-09-16T10:23:21.231Z,966.58
2016-09-16T10:24:21.207Z,966.13
2016-09-16T10:25:21.188Z,966.36
2016-09-16T10:26:21.164Z,966.16
2016-09-16T10:27:21.142Z,965.99
2016-09-16T10:28:21.120Z,966.09
2016-09-16T10:29:21.115Z,965.69
2016-09-16T10:30:21.077Z,966.09
2016-09-16T10:31:21.054Z,965.85
2016-09-16T10:32:21.035Z,966.33
2016-09-16T10:33:21.012Z,965.62
2016-09-16T10:34:20.994Z,965.48
2016-09-16T10:35:20.971Z,965.33
2016-09-16T10:36:20.949Z,965.32
2016-09-16T10:37:20.927Z,965.23
2016-09-16T10:38:20.911Z,965.26
2016-09-16T10:39:20.888Z,965.4
2016-09-16T10:40:20.863Z,965.37
2016-09-16T10:41:20.842Z,965.38
2016-09-16T10:42:20.820Z,965.34
2016-09-16T10:43:20.801Z,965.36
2016-09-16T10:44:20.779Z,965.4
2016-09-16T10:45:20.756Z,965.52
2016-09-16T10:46:20.733Z,965.45
2016-09-16T10:47:20.710Z,965.5
2016-09-16T10:48:20.689Z,965.42
2016-09-16T10:49:20.667Z,965.47
2016-09-16T10:50:20.648Z,965.49
2016-09-16T10:51:20.622Z,965.59
2016-09-16T10:52:20.602Z,965.77
2016-09-16T10:53:20.579Z,965.9
2016-09-16T10:54:20.556Z,965.86
2016-09-16T10:55:20.536Z,966.44
2016-09-16T10:56:20.512Z,966.17
2016-09-16T10:57:20.489Z,965.57
2016-09-16T10:58:20.468Z,966.14
2016-09-16T10:59:20.447Z,966.19
2016-09-16T11:00:20.425Z,966.46
2016-09-16T11:01:20.403Z,966.52
2016-09-16T11:02:20.386Z,965.6
2016-09-16T11:03:20.361Z,966.12
2016-09-16T11:04:20.340Z,966.27
2016-09-16T11:05:20.320Z,966.28
2016-09-16T11:06:20.300Z,966.13
2016-09-16T11:07:20.279Z,965.98
2016-09-16T11:08:20.256Z,965.78
2016-09-16T11:09:20.237Z,965.8
2016-09-16T11:10:20.218Z,965.75
2016-09-16T11:11:20.196Z,965.72
2016-09-16T11:12:20.174Z,965.62
2016-09-16T11:13:20.154Z,965.61
2016-09-16T11:14:20.135Z,965.51
2016-09-16T11:15:20.115Z,965.49
2016-09-16T11:16:20.094Z,965.42
2016-09-16T11:17:20.074Z,965.31
2016-09-16T11:18:20.054Z,965.28
2016-09-16T11:19:20.031Z,965.3
2016-09-16T11:20:20.012Z,965.42
2016-09-16T11:21:19.997Z,965.8
2016-09-16T11:22:19.969Z,965.82
2016-09-16T11:23:19.948Z,965.57
2016-09-16T11:24:19.936Z,965.46
2016-09-16T11:25:19.907Z,965.41
2016-09-16T11:26:19.886Z,965.42
2016-09-16T11:27:19.877Z,965.31
2016-09-16T11:28:19.843Z,965.27
2016-09-16T11:29:19.822Z,965.22
2016-09-16T11:30:19.800Z,965.15
2016-09-16T11:31:19.778Z,965.13
2016-09-16T11:32:19.758Z,965.1
2016-09-16T11:33:19.733Z,965.12
2016-09-16T11:34:19.712Z,965.09
2016-09-16T11:35:19.690Z,965.1
2016-09-16T11:36:19.667Z,965.1
2016-09-16T11:37:19.644Z,965.11
2016-09-16T11:38:19.623Z,965.05
2016-09-16T11:39:19.598Z,965.02
2016-09-16T11:40:19.576Z,965
2016-09-16T11:41:19.554Z,964.97
2016-09-16T11:42:19.529Z,964.97
2016-09-16T11:43:19.508Z,964.95
2016-09-16T11:44:19.484Z,964.91
2016-09-16T11:45:19.458Z,964.85
2016-09-16T11:46:19.434Z,964.88
2016-09-16T11:47:19.411Z,964.88
2016-09-16T11:48:19.386Z,964.87
2016-09-16T11:49:19.364Z,964.87
2016-09-16T11:50:19.339Z,964.86
2016-09-16T11:51:19.315Z,964.83
2016-09-16T11:52:19.291Z,964.8
2016-09-16T11:53:19.264Z,964.76
2016-09-16T11:54:19.240Z,964.75
2016-09-16T11:55:19.215Z,964.7
2016-09-16T11:56:19.192Z,964.67
2016-09-16T11:57:19.169Z,964.68
2016-09-16T11:58:19.149Z,964.66
2016-09-16T11:59:19.116Z,964.7
2016-09-16T12:00:19.095Z,964.7
2016-09-16T12:01:19.068Z,964.68
2016-09-16T12:02:19.043Z,964.69
2016-09-16T12:03:19.017Z,964.7
2016-09-16T12:04:18.993Z,964.65
2016-09-16T12:05:18.967Z,964.71
2016-09-16T12:06:18.942Z,964.72
2016-09-16T12:07:18.915Z,964.72
2016-09-16T12:08:18.890Z,964.73
2016-09-16T12:09:18.869Z,964.73
2016-09-16T12:10:18.841Z,964.73
2016-09-16T12:11:18.813Z,964.72
2016-09-16T12:12:18.789Z,964.68
2016-09-16T12:13:18.769Z,964.71
2016-09-16T12:14:18.736Z,964.69
2016-09-16T12:15:18.712Z,964.65
2016-09-16T12:16:18.687Z,964.6
2016-09-16T12:17:18.660Z,964.59
2016-09-16T12:18:18.636Z,964.56
2016-09-16T12:19:18.641Z,964.58
2016-09-16T12:20:18.586Z,964.59
2016-09-16T12:21:18.557Z,964.66
2016-09-16T12:22:18.532Z,964.65
2016-09-16T12:23:18.504Z,964.69
2016-09-16T12:24:18.481Z,964.73
2016-09-16T12:25:18.460Z,964.69
2016-09-16T12:26:18.434Z,964.68
2016-09-16T12:27:18.404Z,964.67
2016-09-16T12:28:18.379Z,964.69
2016-09-16T12:29:18.351Z,964.71
2016-09-16T12:30:18.326Z,964.76
2016-09-16T12:31:18.299Z,964.79